sensor_id;sensor_type;location;lat;lon;timestamp;temperature;humidity
5364;DHT22;2705;41.410;2.160;2024-02-14T00:00:23;13.30;99.90
5364;DHT22;2705;41.410;2.160;2024-02-14T00:02:54;13.20;99.90
5364;DHT22;2705;41.410;2.160;2024-02-14T00:05:24;13.20;99.90
5364;DHT22;2705;41.410;2.160;2024-02-14T00:07:53;13.10;99.90
5364;DHT22;2705;41.410;2.160;2024-02-14T00:10:23;13.00;99.90
5364;DHT22;2705;41.410;2.160;2024-02-14T00:12:51;13.00;99.90
5364;DHT22;2705;41.410;2.160;2024-02-14T00:15:21;12.90;99.90
5364;DHT22;2705;41.410;2.160;2024-02-14T00:17:51;12.90;99.90
5364;DHT22;2705;41.410;2.160;2024-02-14T00:20:22;13.00;99.90
5364;DHT22;2705;41.410;2.160;2024-02-14T00:22:59;13.10;99.90
5364;DHT22;2705;41.410;2.160;2024-02-14T00:25:29;13.00;99.90
5364;DHT22;2705;41.410;2.160;2024-02-14T00:27:59;13.00;99.90
5364;DHT22;2705;41.410;2.160;2024-02-14T00:30:29;12.90;99.90
5364;DHT22;2705;41.410;2.160;2024-02-14T00:33:24;12.90;99.90
5364;DHT22;2705;41.410;2.160;2024-02-14T00:35:55;12.90;99.90
5364;DHT22;2705;41.410;2.160;2024-02-14T00:38:24;13.00;99.90
5364;DHT22;2705;41.410;2.160;2024-02-14T00:40:53;13.00;99.90
5364;DHT22;2705;41.410;2.160;2024-02-14T00:43:22;13.00;99.90
5364;DHT22;2705;41.410;2.160;2024-02-14T00:45:51;12.80;99.90
5364;DHT22;2705;41.410;2.160;2024-02-14T00:48:20;12.80;99.90
5364;DHT22;2705;41.410;2.160;2024-02-14T00:50:49;12.80;99.90
5364;DHT22;2705;41.410;2.160;2024-02-14T00:53:21;12.90;99.90
5364;DHT22;2705;41.410;2.160;2024-02-14T00:55:50;12.80;99.90
5364;DHT22;2705;41.410;2.160;2024-02-14T00:58:19;12.80;99.90
5364;DHT22;2705;41.410;2.160;2024-02-14T01:00:48;12.90;99.90
5364;DHT22;2705;41.410;2.160;2024-02-14T01:03:17;12.80;99.90
5364;DHT22;2705;41.410;2.160;2024-02-14T01:05:47;12.70;99.90
5364;DHT22;2705;41.410;2.160;2024-02-14T01:08:17;12.70;99.90
5364;DHT22;2705;41.410;2.160;2024-02-14T01:10:47;12.60;99.90
5364;DHT22;2705;41.410;2.160;2024-02-14T01:13:19;12.70;99.90
5364;DHT22;2705;41.410;2.160;2024-02-14T01:15:48;12.70;99.90
5364;DHT22;2705;41.410;2.160;2024-02-14T01:18:17;12.70;99.90
5364;DHT22;2705;41.410;2.160;2024-02-14T01:20:47;12.70;99.90
5364;DHT22;2705;41.410;2.160;2024-02-14T01:23:16;12.80;99.90
5364;DHT22;2705;41.410;2.160;2024-02-14T01:25:49;12.70;99.90
5364;DHT22;2705;41.410;2.160;2024-02-14T01:28:18;12.90;99.90
5364;DHT22;2705;41.410;2.160;2024-02-14T01:30:47;13.00;99.90
5364;DHT22;2705;41.410;2.160;2024-02-14T01:33:17;13.10;99.90
5364;DHT22;2705;41.410;2.160;2024-02-14T01:35:47;13.30;99.90
5364;DHT22;2705;41.410;2.160;2024-02-14T01:38:16;13.40;99.90
5364;DHT22;2705;41.410;2.160;2024-02-14T01:40:45;13.30;99.90
5364;DHT22;2705;41.410;2.160;2024-02-14T01:43:15;13.20;99.90
5364;DHT22;2705;41.410;2.160;2024-02-14T01:45:44;13.10;99.90
5364;DHT22;2705;41.410;2.160;2024-02-14T01:48:15;13.10;99.90
5364;DHT22;2705;41.410;2.160;2024-02-14T01:50:46;13.10;99.90
5364;DHT22;2705;41.410;2.160;2024-02-14T01:53:16;13.10;99.90
5364;DHT22;2705;41.410;2.160;2024-02-14T01:55:44;13.10;99.90
5364;DHT22;2705;41.410;2.160;2024-02-14T01:58:15;13.10;99.90
5364;DHT22;2705;41.410;2.160;2024-02-14T02:00:44;12.90;99.90
5364;DHT22;2705;41.410;2.160;2024-02-14T02:03:15;12.90;99.90
5364;DHT22;2705;41.410;2.160;2024-02-14T02:05:44;12.90;99.90
5364;DHT22;2705;41.410;2.160;2024-02-14T02:08:14;12.80;99.90
5364;DHT22;2705;41.410;2.160;2024-02-14T02:10:43;13.00;99.90
5364;DHT22;2705;41.410;2.160;2024-02-14T02:13:33;13.00;99.90
5364;DHT22;2705;41.410;2.160;2024-02-14T02:16:22;13.20;99.90
5364;DHT22;2705;41.410;2.160;2024-02-14T02:19:11;13.50;99.90
5364;DHT22;2705;41.410;2.160;2024-02-14T02:22:07;13.60;99.90
5364;DHT22;2705;41.410;2.160;2024-02-14T02:24:57;13.30;99.90
5364;DHT22;2705;41.410;2.160;2024-02-14T02:27:26;13.30;99.90
5364;DHT22;2705;41.410;2.160;2024-02-14T02:30:15;13.10;99.90
5364;DHT22;2705;41.410;2.160;2024-02-14T02:32:44;13.00;99.90
5364;DHT22;2705;41.410;2.160;2024-02-14T02:35:14;12.90;99.90
5364;DHT22;2705;41.410;2.160;2024-02-14T02:38:03;12.90;99.90
5364;DHT22;2705;41.410;2.160;2024-02-14T02:40:53;12.90;99.90
5364;DHT22;2705;41.410;2.160;2024-02-14T02:43:42;13.00;99.90
5364;DHT22;2705;41.410;2.160;2024-02-14T02:46:50;12.90;99.90
5364;DHT22;2705;41.410;2.160;2024-02-14T02:49:42;12.80;99.90
5364;DHT22;2705;41.410;2.160;2024-02-14T02:52:31;12.70;99.90
5364;DHT22;2705;41.410;2.160;2024-02-14T02:55:20;12.70;99.90
5364;DHT22;2705;41.410;2.160;2024-02-14T02:57:58;12.60;99.90
5364;DHT22;2705;41.410;2.160;2024-02-14T03:00:28;12.70;99.90
5364;DHT22;2705;41.410;2.160;2024-02-14T03:03:08;12.70;99.90
5364;DHT22;2705;41.410;2.160;2024-02-14T03:05:58;12.80;99.90
5364;DHT22;2705;41.410;2.160;2024-02-14T03:08:47;12.80;99.90
5364;DHT22;2705;41.410;2.160;2024-02-14T03:11:39;12.90;99.90
5364;DHT22;2705;41.410;2.160;2024-02-14T03:14:30;13.00;99.90
5364;DHT22;2705;41.410;2.160;2024-02-14T03:17:20;13.00;99.90
5364;DHT22;2705;41.410;2.160;2024-02-14T03:19:49;12.90;99.90
5364;DHT22;2705;41.410;2.160;2024-02-14T03:22:20;12.90;99.90
5364;DHT22;2705;41.410;2.160;2024-02-14T03:24:49;13.00;99.90
5364;DHT22;2705;41.410;2.160;2024-02-14T03:27:18;13.00;99.90
5364;DHT22;2705;41.410;2.160;2024-02-14T03:29:48;13.10;99.90
5364;DHT22;2705;41.410;2.160;2024-02-14T03:32:18;13.10;99.90
5364;DHT22;2705;41.410;2.160;2024-02-14T03:34:47;13.30;99.90
5364;DHT22;2705;41.410;2.160;2024-02-14T03:37:16;13.20;99.90
5364;DHT22;2705;41.410;2.160;2024-02-14T03:39:46;13.20;99.90
5364;DHT22;2705;41.410;2.160;2024-02-14T03:42:15;13.20;99.90
5364;DHT22;2705;41.410;2.160;2024-02-14T03:44:44;13.10;99.90
5364;DHT22;2705;41.410;2.160;2024-02-14T03:47:14;13.20;99.90
5364;DHT22;2705;41.410;2.160;2024-02-14T03:49:43;13.30;99.90
5364;DHT22;2705;41.410;2.160;2024-02-14T03:52:12;13.30;99.90
5364;DHT22;2705;41.410;2.160;2024-02-14T03:54:41;13.30;99.90
5364;DHT22;2705;41.410;2.160;2024-02-14T03:57:11;13.20;99.90
5364;DHT22;2705;41.410;2.160;2024-02-14T03:59:41;13.20;99.90
5364;DHT22;2705;41.410;2.160;2024-02-14T04:02:10;13.10;99.90
5364;DHT22;2705;41.410;2.160;2024-02-14T04:04:41;13.20;99.90
5364;DHT22;2705;41.410;2.160;2024-02-14T04:07:11;13.00;99.90
5364;DHT22;2705;41.410;2.160;2024-02-14T04:09:41;12.80;99.90
5364;DHT22;2705;41.410;2.160;2024-02-14T04:12:10;13.00;99.90
5364;DHT22;2705;41.410;2.160;2024-02-14T04:14:39;12.90;99.90
5364;DHT22;2705;41.410;2.160;2024-02-14T04:17:08;12.90;99.90
5364;DHT22;2705;41.410;2.160;2024-02-14T04:19:40;13.00;99.90
5364;DHT22;2705;41.410;2.160;2024-02-14T04:22:10;12.90;99.90
5364;DHT22;2705;41.410;2.160;2024-02-14T04:24:39;13.00;99.90
5364;DHT22;2705;41.410;2.160;2024-02-14T04:27:07;13.10;99.90
5364;DHT22;2705;41.410;2.160;2024-02-14T04:29:37;13.30;99.90
5364;DHT22;2705;41.410;2.160;2024-02-14T04:32:06;13.20;99.90
5364;DHT22;2705;41.410;2.160;2024-02-14T04:34:36;13.10;99.90
5364;DHT22;2705;41.410;2.160;2024-02-14T04:37:08;13.00;99.90
5364;DHT22;2705;41.410;2.160;2024-02-14T04:39:42;13.10;99.90
5364;DHT22;2705;41.410;2.160;2024-02-14T04:42:11;13.10;99.90
5364;DHT22;2705;41.410;2.160;2024-02-14T04:44:40;13.10;99.90
5364;DHT22;2705;41.410;2.160;2024-02-14T04:47:09;13.00;99.90
5364;DHT22;2705;41.410;2.160;2024-02-14T04:49:38;13.10;99.90
5364;DHT22;2705;41.410;2.160;2024-02-14T04:52:09;13.00;99.90
5364;DHT22;2705;41.410;2.160;2024-02-14T04:54:38;13.00;99.90
5364;DHT22;2705;41.410;2.160;2024-02-14T04:57:07;13.10;99.90
5364;DHT22;2705;41.410;2.160;2024-02-14T04:59:36;13.00;99.90
5364;DHT22;2705;41.410;2.160;2024-02-14T05:02:05;12.90;99.90
5364;DHT22;2705;41.410;2.160;2024-02-14T05:04:34;12.90;99.90
5364;DHT22;2705;41.410;2.160;2024-02-14T05:07:05;12.90;99.90
5364;DHT22;2705;41.410;2.160;2024-02-14T05:09:36;12.90;99.90
5364;DHT22;2705;41.410;2.160;2024-02-14T05:12:06;12.80;99.90
5364;DHT22;2705;41.410;2.160;2024-02-14T05:14:38;12.70;99.90
5364;DHT22;2705;41.410;2.160;2024-02-14T05:17:08;13.10;99.90
5364;DHT22;2705;41.410;2.160;2024-02-14T05:19:37;13.30;99.90
5364;DHT22;2705;41.410;2.160;2024-02-14T05:22:06;13.40;99.90
5364;DHT22;2705;41.410;2.160;2024-02-14T05:24:36;13.50;99.90
5364;DHT22;2705;41.410;2.160;2024-02-14T05:27:06;13.50;99.90
5364;DHT22;2705;41.410;2.160;2024-02-14T05:29:35;13.60;99.90
5364;DHT22;2705;41.410;2.160;2024-02-14T05:32:05;13.90;99.90
5364;DHT22;2705;41.410;2.160;2024-02-14T05:34:37;14.00;99.90
5364;DHT22;2705;41.410;2.160;2024-02-14T05:37:06;13.90;99.90
5364;DHT22;2705;41.410;2.160;2024-02-14T05:39:37;13.80;99.90
5364;DHT22;2705;41.410;2.160;2024-02-14T05:42:06;13.30;99.90
5364;DHT22;2705;41.410;2.160;2024-02-14T05:44:35;13.10;99.90
5364;DHT22;2705;41.410;2.160;2024-02-14T05:47:04;13.20;99.90
5364;DHT22;2705;41.410;2.160;2024-02-14T05:49:33;13.20;99.90
5364;DHT22;2705;41.410;2.160;2024-02-14T05:52:02;13.40;99.90
5364;DHT22;2705;41.410;2.160;2024-02-14T05:54:32;13.20;99.90
5364;DHT22;2705;41.410;2.160;2024-02-14T05:57:02;13.10;99.90
5364;DHT22;2705;41.410;2.160;2024-02-14T05:59:32;13.10;99.90
5364;DHT22;2705;41.410;2.160;2024-02-14T06:02:03;13.00;99.90
5364;DHT22;2705;41.410;2.160;2024-02-14T06:04:33;12.90;99.90
5364;DHT22;2705;41.410;2.160;2024-02-14T06:07:03;12.80;99.90
5364;DHT22;2705;41.410;2.160;2024-02-14T06:09:34;13.00;99.90
5364;DHT22;2705;41.410;2.160;2024-02-14T06:12:06;12.90;99.90
5364;DHT22;2705;41.410;2.160;2024-02-14T06:14:36;13.00;99.90
5364;DHT22;2705;41.410;2.160;2024-02-14T06:17:05;13.10;99.90
5364;DHT22;2705;41.410;2.160;2024-02-14T06:19:34;13.00;99.90
5364;DHT22;2705;41.410;2.160;2024-02-14T06:22:07;12.90;99.90
5364;DHT22;2705;41.410;2.160;2024-02-14T06:24:36;12.90;99.90
5364;DHT22;2705;41.410;2.160;2024-02-14T06:27:07;12.90;99.90
5364;DHT22;2705;41.410;2.160;2024-02-14T06:29:36;13.10;99.90
5364;DHT22;2705;41.410;2.160;2024-02-14T06:32:06;13.00;99.90
5364;DHT22;2705;41.410;2.160;2024-02-14T06:34:35;12.90;99.90
5364;DHT22;2705;41.410;2.160;2024-02-14T06:37:04;12.80;99.90
5364;DHT22;2705;41.410;2.160;2024-02-14T06:39:33;12.70;99.90
5364;DHT22;2705;41.410;2.160;2024-02-14T06:42:03;12.70;99.90
5364;DHT22;2705;41.410;2.160;2024-02-14T06:44:33;12.80;99.90
5364;DHT22;2705;41.410;2.160;2024-02-14T06:47:03;12.70;99.90
5364;DHT22;2705;41.410;2.160;2024-02-14T06:49:32;12.60;99.90
5364;DHT22;2705;41.410;2.160;2024-02-14T06:52:01;12.60;99.90
5364;DHT22;2705;41.410;2.160;2024-02-14T06:54:30;12.70;99.90
5364;DHT22;2705;41.410;2.160;2024-02-14T06:56:59;12.70;99.90
5364;DHT22;2705;41.410;2.160;2024-02-14T06:59:28;12.80;99.90
5364;DHT22;2705;41.410;2.160;2024-02-14T07:01:59;12.90;99.90
5364;DHT22;2705;41.410;2.160;2024-02-14T07:04:40;12.80;99.90
5364;DHT22;2705;41.410;2.160;2024-02-14T07:07:09;12.60;99.90
5364;DHT22;2705;41.410;2.160;2024-02-14T07:09:38;12.50;99.90
5364;DHT22;2705;41.410;2.160;2024-02-14T07:12:07;12.60;99.90
5364;DHT22;2705;41.410;2.160;2024-02-14T07:14:37;12.70;99.90
5364;DHT22;2705;41.410;2.160;2024-02-14T07:17:07;12.70;99.90
5364;DHT22;2705;41.410;2.160;2024-02-14T07:19:36;12.90;99.90
5364;DHT22;2705;41.410;2.160;2024-02-14T07:22:06;13.10;99.90
5364;DHT22;2705;41.410;2.160;2024-02-14T07:24:37;13.20;99.90
5364;DHT22;2705;41.410;2.160;2024-02-14T07:27:06;13.30;99.90
5364;DHT22;2705;41.410;2.160;2024-02-14T07:29:38;13.30;99.90
5364;DHT22;2705;41.410;2.160;2024-02-14T07:32:08;13.40;99.90
5364;DHT22;2705;41.410;2.160;2024-02-14T07:34:38;13.20;99.90
5364;DHT22;2705;41.410;2.160;2024-02-14T07:37:08;13.30;99.90
5364;DHT22;2705;41.410;2.160;2024-02-14T07:39:37;13.30;99.90
5364;DHT22;2705;41.410;2.160;2024-02-14T07:42:06;13.30;99.90
5364;DHT22;2705;41.410;2.160;2024-02-14T07:44:35;13.50;99.90
5364;DHT22;2705;41.410;2.160;2024-02-14T07:47:04;13.40;99.90
5364;DHT22;2705;41.410;2.160;2024-02-14T07:49:35;13.50;99.90
5364;DHT22;2705;41.410;2.160;2024-02-14T07:52:05;13.40;99.90
5364;DHT22;2705;41.410;2.160;2024-02-14T07:54:34;13.40;99.90
5364;DHT22;2705;41.410;2.160;2024-02-14T07:57:04;13.40;99.90
5364;DHT22;2705;41.410;2.160;2024-02-14T07:59:33;13.50;99.90
5364;DHT22;2705;41.410;2.160;2024-02-14T08:02:02;13.60;99.90
5364;DHT22;2705;41.410;2.160;2024-02-14T08:04:31;13.60;99.90
5364;DHT22;2705;41.410;2.160;2024-02-14T08:07:02;13.60;99.90
5364;DHT22;2705;41.410;2.160;2024-02-14T08:09:31;13.50;99.90
5364;DHT22;2705;41.410;2.160;2024-02-14T08:12:00;13.50;99.90
5364;DHT22;2705;41.410;2.160;2024-02-14T08:14:30;13.60;99.90
5364;DHT22;2705;41.410;2.160;2024-02-14T08:16:59;13.60;99.90
5364;DHT22;2705;41.410;2.160;2024-02-14T08:19:28;13.60;99.90
5364;DHT22;2705;41.410;2.160;2024-02-14T08:21:57;13.70;99.90
5364;DHT22;2705;41.410;2.160;2024-02-14T08:24:29;13.80;99.90
5364;DHT22;2705;41.410;2.160;2024-02-14T08:26:58;13.80;99.90
5364;DHT22;2705;41.410;2.160;2024-02-14T08:29:27;13.80;99.90
5364;DHT22;2705;41.410;2.160;2024-02-14T08:31:56;14.10;99.90
5364;DHT22;2705;41.410;2.160;2024-02-14T08:34:25;14.20;99.90
5364;DHT22;2705;41.410;2.160;2024-02-14T08:36:54;14.10;99.90
5364;DHT22;2705;41.410;2.160;2024-02-14T08:39:23;14.20;99.90
5364;DHT22;2705;41.410;2.160;2024-02-14T08:41:55;14.20;99.90
5364;DHT22;2705;41.410;2.160;2024-02-14T08:44:24;14.10;99.90
5364;DHT22;2705;41.410;2.160;2024-02-14T08:46:53;14.20;99.90
5364;DHT22;2705;41.410;2.160;2024-02-14T08:49:22;14.20;99.90
5364;DHT22;2705;41.410;2.160;2024-02-14T08:51:51;14.30;99.90
5364;DHT22;2705;41.410;2.160;2024-02-14T08:54:20;14.50;99.90
5364;DHT22;2705;41.410;2.160;2024-02-14T08:56:55;14.50;99.90
5364;DHT22;2705;41.410;2.160;2024-02-14T08:59:26;14.50;99.90
5364;DHT22;2705;41.410;2.160;2024-02-14T09:01:55;14.60;99.90
5364;DHT22;2705;41.410;2.160;2024-02-14T09:04:24;14.70;99.90
5364;DHT22;2705;41.410;2.160;2024-02-14T09:06:55;14.70;99.90
5364;DHT22;2705;41.410;2.160;2024-02-14T09:09:25;14.80;99.90
5364;DHT22;2705;41.410;2.160;2024-02-14T09:11:55;14.80;99.90
5364;DHT22;2705;41.410;2.160;2024-02-14T09:14:24;14.80;99.90
5364;DHT22;2705;41.410;2.160;2024-02-14T09:16:55;15.00;99.90
5364;DHT22;2705;41.410;2.160;2024-02-14T09:19:25;15.10;99.90
5364;DHT22;2705;41.410;2.160;2024-02-14T09:21:55;15.10;99.90
5364;DHT22;2705;41.410;2.160;2024-02-14T09:24:25;15.10;99.90
5364;DHT22;2705;41.410;2.160;2024-02-14T09:26:55;15.20;99.90
5364;DHT22;2705;41.410;2.160;2024-02-14T09:29:25;15.20;99.90
5364;DHT22;2705;41.410;2.160;2024-02-14T09:31:54;15.30;99.90
5364;DHT22;2705;41.410;2.160;2024-02-14T09:34:24;15.40;99.90
5364;DHT22;2705;41.410;2.160;2024-02-14T09:36:53;15.30;99.90
5364;DHT22;2705;41.410;2.160;2024-02-14T09:39:24;15.40;99.90
5364;DHT22;2705;41.410;2.160;2024-02-14T09:41:58;15.50;99.90
5364;DHT22;2705;41.410;2.160;2024-02-14T09:44:29;15.50;99.90
5364;DHT22;2705;41.410;2.160;2024-02-14T09:47:00;15.70;99.90
5364;DHT22;2705;41.410;2.160;2024-02-14T09:49:32;15.60;99.90
5364;DHT22;2705;41.410;2.160;2024-02-14T09:52:04;15.80;99.90
5364;DHT22;2705;41.410;2.160;2024-02-14T09:54:35;15.90;99.90
5364;DHT22;2705;41.410;2.160;2024-02-14T09:57:08;16.10;99.90
5364;DHT22;2705;41.410;2.160;2024-02-14T09:59:40;16.20;99.90
5364;DHT22;2705;41.410;2.160;2024-02-14T10:02:09;16.30;99.90
5364;DHT22;2705;41.410;2.160;2024-02-14T10:04:39;16.30;99.90
5364;DHT22;2705;41.410;2.160;2024-02-14T10:07:09;16.40;99.90
5364;DHT22;2705;41.410;2.160;2024-02-14T10:09:41;16.50;99.90
5364;DHT22;2705;41.410;2.160;2024-02-14T10:12:13;16.60;99.90
5364;DHT22;2705;41.410;2.160;2024-02-14T10:14:42;16.40;99.90
5364;DHT22;2705;41.410;2.160;2024-02-14T10:17:18;16.50;99.90
5364;DHT22;2705;41.410;2.160;2024-02-14T10:19:57;16.60;99.90
5364;DHT22;2705;41.410;2.160;2024-02-14T10:22:32;16.70;99.90
5364;DHT22;2705;41.410;2.160;2024-02-14T10:25:04;16.80;99.90
5364;DHT22;2705;41.410;2.160;2024-02-14T10:27:38;17.00;99.90
5364;DHT22;2705;41.410;2.160;2024-02-14T10:30:09;16.90;99.90
5364;DHT22;2705;41.410;2.160;2024-02-14T10:32:39;16.90;99.90
5364;DHT22;2705;41.410;2.160;2024-02-14T10:35:09;17.00;99.90
5364;DHT22;2705;41.410;2.160;2024-02-14T10:37:39;17.10;99.90
5364;DHT22;2705;41.410;2.160;2024-02-14T10:40:09;17.30;99.90
5364;DHT22;2705;41.410;2.160;2024-02-14T10:42:40;17.40;99.90
5364;DHT22;2705;41.410;2.160;2024-02-14T10:45:09;17.50;99.90
5364;DHT22;2705;41.410;2.160;2024-02-14T10:47:49;17.50;99.90
5364;DHT22;2705;41.410;2.160;2024-02-14T10:50:21;17.60;99.90
5364;DHT22;2705;41.410;2.160;2024-02-14T10:52:53;17.80;99.90
5364;DHT22;2705;41.410;2.160;2024-02-14T10:55:30;17.80;99.90
5364;DHT22;2705;41.410;2.160;2024-02-14T10:58:01;17.90;99.90
5364;DHT22;2705;41.410;2.160;2024-02-14T11:00:31;18.00;99.90
5364;DHT22;2705;41.410;2.160;2024-02-14T11:03:01;18.00;99.90
5364;DHT22;2705;41.410;2.160;2024-02-14T11:05:30;18.00;99.90
5364;DHT22;2705;41.410;2.160;2024-02-14T11:08:08;18.10;99.90
5364;DHT22;2705;41.410;2.160;2024-02-14T11:10:37;18.20;99.90
5364;DHT22;2705;41.410;2.160;2024-02-14T11:13:12;18.20;99.90
5364;DHT22;2705;41.410;2.160;2024-02-14T11:15:45;18.20;99.90
5364;DHT22;2705;41.410;2.160;2024-02-14T11:18:25;18.30;99.90
5364;DHT22;2705;41.410;2.160;2024-02-14T11:20:54;18.40;99.90
5364;DHT22;2705;41.410;2.160;2024-02-14T11:23:26;18.50;99.90
5364;DHT22;2705;41.410;2.160;2024-02-14T11:26:03;18.60;99.90
5364;DHT22;2705;41.410;2.160;2024-02-14T11:28:37;18.70;99.90
5364;DHT22;2705;41.410;2.160;2024-02-14T11:31:08;18.70;99.90
5364;DHT22;2705;41.410;2.160;2024-02-14T11:33:37;18.70;99.90
5364;DHT22;2705;41.410;2.160;2024-02-14T11:36:08;18.80;99.90
5364;DHT22;2705;41.410;2.160;2024-02-14T11:38:40;18.80;99.90
5364;DHT22;2705;41.410;2.160;2024-02-14T11:41:10;18.90;99.90
5364;DHT22;2705;41.410;2.160;2024-02-14T11:43:51;18.90;99.90
5364;DHT22;2705;41.410;2.160;2024-02-14T11:46:20;18.90;99.90
5364;DHT22;2705;41.410;2.160;2024-02-14T11:48:49;18.90;99.90
5364;DHT22;2705;41.410;2.160;2024-02-14T11:51:20;18.90;99.90
5364;DHT22;2705;41.410;2.160;2024-02-14T11:53:50;18.90;99.90
5364;DHT22;2705;41.410;2.160;2024-02-14T11:56:21;18.70;99.90
5364;DHT22;2705;41.410;2.160;2024-02-14T11:58:51;18.60;99.90
5364;DHT22;2705;41.410;2.160;2024-02-14T12:01:21;18.70;99.90
5364;DHT22;2705;41.410;2.160;2024-02-14T12:03:52;18.80;99.90
5364;DHT22;2705;41.410;2.160;2024-02-14T12:06:23;19.00;99.90
5364;DHT22;2705;41.410;2.160;2024-02-14T12:08:53;19.10;99.90
5364;DHT22;2705;41.410;2.160;2024-02-14T12:11:25;19.10;99.90
5364;DHT22;2705;41.410;2.160;2024-02-14T12:13:55;19.10;99.90
5364;DHT22;2705;41.410;2.160;2024-02-14T12:16:24;19.10;99.90
5364;DHT22;2705;41.410;2.160;2024-02-14T12:19:04;19.20;99.90
5364;DHT22;2705;41.410;2.160;2024-02-14T12:21:37;19.20;99.90
5364;DHT22;2705;41.410;2.160;2024-02-14T12:24:07;19.20;99.90
5364;DHT22;2705;41.410;2.160;2024-02-14T12:26:37;19.20;99.90
5364;DHT22;2705;41.410;2.160;2024-02-14T12:29:10;19.30;99.90
5364;DHT22;2705;41.410;2.160;2024-02-14T12:31:41;19.30;99.90
5364;DHT22;2705;41.410;2.160;2024-02-14T12:34:12;19.40;99.90
5364;DHT22;2705;41.410;2.160;2024-02-14T12:36:41;19.20;99.90
5364;DHT22;2705;41.410;2.160;2024-02-14T12:39:11;19.40;99.90
5364;DHT22;2705;41.410;2.160;2024-02-14T12:41:40;19.30;99.90
5364;DHT22;2705;41.410;2.160;2024-02-14T12:44:11;19.50;99.90
5364;DHT22;2705;41.410;2.160;2024-02-14T12:46:40;19.50;99.90
5364;DHT22;2705;41.410;2.160;2024-02-14T12:49:09;19.50;99.90
5364;DHT22;2705;41.410;2.160;2024-02-14T12:51:39;19.60;99.90
5364;DHT22;2705;41.410;2.160;2024-02-14T12:54:08;19.60;99.90
5364;DHT22;2705;41.410;2.160;2024-02-14T12:56:37;19.70;99.90
5364;DHT22;2705;41.410;2.160;2024-02-14T12:59:07;19.70;99.90
5364;DHT22;2705;41.410;2.160;2024-02-14T13:01:41;19.70;99.90
5364;DHT22;2705;41.410;2.160;2024-02-14T13:04:12;19.70;99.90
5364;DHT22;2705;41.410;2.160;2024-02-14T13:06:42;19.70;99.90
5364;DHT22;2705;41.410;2.160;2024-02-14T13:09:12;19.70;99.90
5364;DHT22;2705;41.410;2.160;2024-02-14T13:11:43;19.80;99.90
5364;DHT22;2705;41.410;2.160;2024-02-14T13:14:13;19.70;99.90
5364;DHT22;2705;41.410;2.160;2024-02-14T13:16:44;19.70;99.90
5364;DHT22;2705;41.410;2.160;2024-02-14T13:19:13;19.70;99.90
5364;DHT22;2705;41.410;2.160;2024-02-14T13:21:46;19.60;99.90
5364;DHT22;2705;41.410;2.160;2024-02-14T13:24:16;19.60;99.90
5364;DHT22;2705;41.410;2.160;2024-02-14T13:26:45;19.60;99.90
5364;DHT22;2705;41.410;2.160;2024-02-14T13:29:15;19.60;99.90
5364;DHT22;2705;41.410;2.160;2024-02-14T13:31:46;19.70;99.90
5364;DHT22;2705;41.410;2.160;2024-02-14T13:34:16;19.70;99.90
5364;DHT22;2705;41.410;2.160;2024-02-14T13:36:47;19.80;99.90
5364;DHT22;2705;41.410;2.160;2024-02-14T13:39:16;19.90;99.90
5364;DHT22;2705;41.410;2.160;2024-02-14T13:41:46;19.90;99.90
5364;DHT22;2705;41.410;2.160;2024-02-14T13:44:15;20.00;99.90
5364;DHT22;2705;41.410;2.160;2024-02-14T13:46:46;20.10;99.90
5364;DHT22;2705;41.410;2.160;2024-02-14T13:49:18;20.10;99.90
5364;DHT22;2705;41.410;2.160;2024-02-14T13:51:50;20.10;99.90
5364;DHT22;2705;41.410;2.160;2024-02-14T13:54:20;20.10;99.90
5364;DHT22;2705;41.410;2.160;2024-02-14T13:56:50;20.00;99.90
5364;DHT22;2705;41.410;2.160;2024-02-14T13:59:19;20.00;99.90
5364;DHT22;2705;41.410;2.160;2024-02-14T14:01:50;20.10;99.90
5364;DHT22;2705;41.410;2.160;2024-02-14T14:04:19;19.90;99.90
5364;DHT22;2705;41.410;2.160;2024-02-14T14:06:49;20.00;99.90
5364;DHT22;2705;41.410;2.160;2024-02-14T14:09:18;20.00;99.90
5364;DHT22;2705;41.410;2.160;2024-02-14T14:11:48;20.00;99.90
5364;DHT22;2705;41.410;2.160;2024-02-14T14:14:18;20.00;99.90
5364;DHT22;2705;41.410;2.160;2024-02-14T14:16:49;19.90;99.90
5364;DHT22;2705;41.410;2.160;2024-02-14T14:19:19;19.80;99.90
5364;DHT22;2705;41.410;2.160;2024-02-14T14:21:51;19.70;99.90
5364;DHT22;2705;41.410;2.160;2024-02-14T14:24:20;19.60;99.90
5364;DHT22;2705;41.410;2.160;2024-02-14T14:26:51;19.70;99.90
5364;DHT22;2705;41.410;2.160;2024-02-14T14:29:21;19.70;99.90
5364;DHT22;2705;41.410;2.160;2024-02-14T14:31:52;19.80;99.90
5364;DHT22;2705;41.410;2.160;2024-02-14T14:34:21;19.90;99.90
5364;DHT22;2705;41.410;2.160;2024-02-14T14:36:50;19.80;99.90
5364;DHT22;2705;41.410;2.160;2024-02-14T14:39:22;19.70;99.90
5364;DHT22;2705;41.410;2.160;2024-02-14T14:41:50;19.60;99.90
5364;DHT22;2705;41.410;2.160;2024-02-14T14:44:20;19.70;99.90
5364;DHT22;2705;41.410;2.160;2024-02-14T14:46:49;19.90;99.90
5364;DHT22;2705;41.410;2.160;2024-02-14T14:49:20;19.70;99.90
5364;DHT22;2705;41.410;2.160;2024-02-14T14:51:49;19.60;99.90
5364;DHT22;2705;41.410;2.160;2024-02-14T14:54:18;19.60;99.90
5364;DHT22;2705;41.410;2.160;2024-02-14T14:56:52;19.50;99.90
5364;DHT22;2705;41.410;2.160;2024-02-14T14:59:21;19.50;99.90
5364;DHT22;2705;41.410;2.160;2024-02-14T15:01:51;19.40;99.90
5364;DHT22;2705;41.410;2.160;2024-02-14T15:04:22;19.40;99.90
5364;DHT22;2705;41.410;2.160;2024-02-14T15:06:52;19.50;99.90
5364;DHT22;2705;41.410;2.160;2024-02-14T15:09:22;19.50;99.90
5364;DHT22;2705;41.410;2.160;2024-02-14T15:11:50;19.60;99.90
5364;DHT22;2705;41.410;2.160;2024-02-14T15:14:20;19.50;99.90
5364;DHT22;2705;41.410;2.160;2024-02-14T15:16:49;19.60;99.90
5364;DHT22;2705;41.410;2.160;2024-02-14T15:19:17;19.60;99.90
5364;DHT22;2705;41.410;2.160;2024-02-14T15:21:48;19.60;99.90
5364;DHT22;2705;41.410;2.160;2024-02-14T15:24:17;19.70;99.90
5364;DHT22;2705;41.410;2.160;2024-02-14T15:26:48;19.60;99.90
5364;DHT22;2705;41.410;2.160;2024-02-14T15:29:28;19.60;99.90
5364;DHT22;2705;41.410;2.160;2024-02-14T15:32:15;19.60;99.90
5364;DHT22;2705;41.410;2.160;2024-02-14T15:35:01;19.60;99.90
5364;DHT22;2705;41.410;2.160;2024-02-14T15:37:34;19.50;99.90
5364;DHT22;2705;41.410;2.160;2024-02-14T15:40:03;19.50;99.90
5364;DHT22;2705;41.410;2.160;2024-02-14T15:42:33;19.50;99.90
5364;DHT22;2705;41.410;2.160;2024-02-14T15:45:02;19.50;99.90
5364;DHT22;2705;41.410;2.160;2024-02-14T15:47:31;19.40;99.90
5364;DHT22;2705;41.410;2.160;2024-02-14T15:50:00;19.20;99.90
5364;DHT22;2705;41.410;2.160;2024-02-14T15:52:30;19.10;99.90
5364;DHT22;2705;41.410;2.160;2024-02-14T15:55:00;19.10;99.90
5364;DHT22;2705;41.410;2.160;2024-02-14T15:57:29;19.20;99.90
5364;DHT22;2705;41.410;2.160;2024-02-14T15:59:58;19.10;99.90
5364;DHT22;2705;41.410;2.160;2024-02-14T16:02:34;19.10;99.90
5364;DHT22;2705;41.410;2.160;2024-02-14T16:05:04;19.10;99.90
5364;DHT22;2705;41.410;2.160;2024-02-14T16:07:33;19.00;99.90
5364;DHT22;2705;41.410;2.160;2024-02-14T16:10:03;18.90;99.90
5364;DHT22;2705;41.410;2.160;2024-02-14T16:12:32;18.90;99.90
5364;DHT22;2705;41.410;2.160;2024-02-14T16:15:02;18.90;99.90
5364;DHT22;2705;41.410;2.160;2024-02-14T16:17:31;18.90;99.90
5364;DHT22;2705;41.410;2.160;2024-02-14T16:20:00;18.90;99.90
5364;DHT22;2705;41.410;2.160;2024-02-14T16:22:29;18.90;99.90
5364;DHT22;2705;41.410;2.160;2024-02-14T16:24:58;18.80;99.90
5364;DHT22;2705;41.410;2.160;2024-02-14T16:27:28;18.50;99.90